Time;durP1;ratioP1;P1;durP2;ratioP2;P2;SDS_P1;SDS_P2;PMS_P1;PMS_P2;Temp;Humidity;BMP_temperature;BMP_pressure;BME280_temperature;BME280_humidity;BME280_pressure;Samples;Min_cycle;Max_cycle;Signal;HPM_P1;HPM_P2
2022/04/10 00:00:36;;;;;;;13.82;12.73;;;;;;;;;;5088516;28;20040;-67
2022/04/10 00:03:03;;;;;;;14.02;12.82;;;;;;;;;;5088563;28;20032;-67
2022/04/10 00:05:28;;;;;;;13.55;12.45;;;;;;;;;;5087299;28;20636;-67
2022/04/10 00:07:54;;;;;;;13.38;12.30;;;;;;;;;;5090135;28;20036;-67
2022/04/10 00:10:20;;;;;;;13.02;11.82;;;;;;;;;;5087724;28;20040;-67
2022/04/10 00:12:46;;;;;;;14.25;13.20;;;;;;;;;;5088580;28;20031;-67
2022/04/10 00:15:12;;;;;;;15.13;13.73;;;;;;;;;;5089995;28;20043;-67
2022/04/10 00:17:41;;;;;;;16.35;13.15;;;;;;;;;;5093226;28;20028;-67
2022/04/10 00:20:07;;;;;;;14.82;13.32;;;;;;;;;;5092081;28;20036;-67
2022/04/10 00:22:47;;;;;;;14.07;12.93;;;;;;;;;;5091783;28;20115;-67
2022/04/10 00:25:16;;;;;;;14.77;13.48;;;;;;;;;;5092389;28;20039;-67
2022/04/10 00:27:42;;;;;;;14.20;13.20;;;;;;;;;;5088409;28;20498;-67
2022/04/10 00:30:09;;;;;;;13.90;12.93;;;;;;;;;;5073026;28;20036;-67
2022/04/10 00:32:34;;;;;;;14.38;13.07;;;;;;;;;;5096467;28;20085;-67
2022/04/10 00:35:00;;;;;;;14.00;13.00;;;;;;;;;;5097407;28;20043;-67
2022/04/10 00:37:26;;;;;;;13.80;12.88;;;;;;;;;;5092376;28;20039;-67
2022/04/10 00:39:52;;;;;;;15.10;13.57;;;;;;;;;;5074134;28;20108;-67
2022/04/10 00:42:18;;;;;;;13.90;12.70;;;;;;;;;;5074648;28;20050;-67
2022/04/10 00:44:44;;;;;;;14.90;13.38;;;;;;;;;;5073268;28;20380;-67
2022/04/10 00:47:10;;;;;;;13.88;12.80;;;;;;;;;;5097506;28;20053;-67
2022/04/10 00:49:37;;;;;;;14.23;13.02;;;;;;;;;;5077927;28;20036;-67
2022/04/10 00:52:06;;;;;;;14.48;13.25;;;;;;;;;;5098238;28;20119;-67
2022/04/10 00:54:33;;;;;;;;;;;;;;;;;;5096574;28;20069;-67
2022/04/10 00:57:00;;;;;;;15.13;13.88;;;;;;;;;;5089598;28;19919;-66
2022/04/10 00:59:28;;;;;;;15.50;14.35;;;;;;;;;;5073012;28;20035;-66
2022/04/10 01:01:54;;;;;;;14.82;13.38;;;;;;;;;;5096696;28;20040;-67
2022/04/10 01:04:20;;;;;;;15.02;12.90;;;;;;;;;;5092197;28;20036;-66
2022/04/10 01:06:50;;;;;;;14.05;12.88;;;;;;;;;;5072585;28;20067;-66
2022/04/10 01:09:17;;;;;;;14.32;13.27;;;;;;;;;;5095362;28;20034;-67
2022/04/10 01:11:43;;;;;;;14.80;13.25;;;;;;;;;;5071744;28;20032;-66
2022/04/10 01:14:09;;;;;;;14.70;13.15;;;;;;;;;;5095221;28;20485;-66
2022/04/10 01:16:38;;;;;;;13.75;12.57;;;;;;;;;;5093988;28;20116;-66
2022/04/10 01:19:05;;;;;;;14.20;12.98;;;;;;;;;;5071790;28;20085;-66
2022/04/10 01:21:38;;;;;;;14.02;12.88;;;;;;;;;;5095884;28;20679;-66
2022/04/10 01:24:05;;;;;;;14.75;13.40;;;;;;;;;;5080197;28;20410;-67
2022/04/10 01:26:31;;;;;;;14.45;13.20;;;;;;;;;;5119083;22;20420;-68
2022/04/10 01:29:07;;;;;;;15.15;13.70;;;;;;;;;;5070446;28;20466;-69
2022/04/10 01:31:36;;;;;;;13.88;12.88;;;;;;;;;;5074540;28;20139;-70
2022/04/10 01:34:07;;;;;;;15.27;13.98;;;;;;;;;;5068111;28;20284;-68
2022/04/10 01:36:35;;;;;;;14.32;13.13;;;;;;;;;;5070827;28;20035;-68
2022/04/10 01:39:04;;;;;;;14.93;13.75;;;;;;;;;;5084415;28;20059;-69
2022/04/10 01:41:30;;;;;;;14.27;12.88;;;;;;;;;;5087466;28;20064;-68
2022/04/10 01:43:59;;;;;;;14.13;12.93;;;;;;;;;;5071070;28;20064;-69
2022/04/10 01:46:30;;;;;;;13.70;12.60;;;;;;;;;;5071097;28;21339;-70
2022/04/10 01:48:57;;;;;;;14.95;13.40;;;;;;;;;;5071445;28;20405;-67
2022/04/10 01:51:26;;;;;;;15.32;13.00;;;;;;;;;;5088850;28;20658;-67
2022/04/10 01:53:54;;;;;;;14.23;12.82;;;;;;;;;;5070372;28;20090;-67
2022/04/10 01:56:21;;;;;;;13.82;12.48;;;;;;;;;;5098219;28;20031;-69
2022/04/10 01:58:48;;;;;;;14.43;13.32;;;;;;;;;;5081729;28;20028;-70
2022/04/10 02:01:16;;;;;;;15.30;13.13;;;;;;;;;;5077353;28;20028;-68
2022/04/10 02:03:43;;;;;;;13.68;12.60;;;;;;;;;;5064495;28;20036;-69
2022/04/10 02:06:10;;;;;;;13.82;12.82;;;;;;;;;;5086327;28;20036;-68
2022/04/10 02:08:36;;;;;;;14.18;13.00;;;;;;;;;;5082002;28;20099;-69
2022/04/10 02:11:14;;;;;;;13.60;12.50;;;;;;;;;;5077307;28;20123;-68
2022/04/10 02:13:43;;;;;;;13.70;12.73;;;;;;;;;;5099866;28;20371;-69
2022/04/10 02:16:14;;;;;;;14.23;12.85;;;;;;;;;;5071434;28;20031;-69
2022/04/10 02:18:40;;;;;;;13.57;12.30;;;;;;;;;;5088022;28;20044;-68
2022/04/10 02:21:07;;;;;;;14.05;13.02;;;;;;;;;;5066970;28;20032;-69
2022/04/10 02:23:35;;;;;;;13.93;12.93;;;;;;;;;;5070005;28;20115;-70
2022/04/10 02:26:01;;;;;;;13.82;12.82;;;;;;;;;;5087462;28;20111;-69
2022/04/10 02:28:27;;;;;;;14.07;12.88;;;;;;;;;;5101325;28;20035;-69
2022/04/10 02:30:52;;;;;;;14.27;12.50;;;;;;;;;;5091535;28;20039;-69
2022/04/10 02:33:19;;;;;;;14.20;13.13;;;;;;;;;;5073633;28;20028;-69
2022/04/10 02:35:45;;;;;;;14.45;13.25;;;;;;;;;;5070169;28;20082;-68
2022/04/10 02:38:11;;;;;;;14.82;13.43;;;;;;;;;;5090172;28;20082;-69
2022/04/10 02:40:37;;;;;;;15.60;14.10;;;;;;;;;;5065684;28;20151;-68
2022/04/10 02:43:03;;;;;;;14.80;13.60;;;;;;;;;;5083778;28;20450;-69
2022/04/10 02:45:30;;;;;;;14.65;13.48;;;;;;;;;;5069338;28;20040;-68
2022/04/10 02:47:57;;;;;;;14.73;12.48;;;;;;;;;;5069694;28;20028;-68
2022/04/10 02:50:24;;;;;;;16.17;14.75;;;;;;;;;;5080488;28;20107;-68
2022/04/10 02:52:51;;;;;;;15.23;13.73;;;;;;;;;;5090632;28;20184;-69
2022/04/10 02:55:17;;;;;;;14.65;13.13;;;;;;;;;;5069043;28;20092;-68
2022/04/10 02:58:01;;;;;;;15.30;13.65;;;;;;;;;;5088663;28;20084;-69
2022/04/10 03:00:47;;;;;;;14.85;13.75;;;;;;;;;;5072692;28;20054;-69
2022/04/10 03:03:32;;;;;;;14.35;13.00;;;;;;;;;;5070000;28;20058;-68
2022/04/10 03:06:17;;;;;;;15.38;13.93;;;;;;;;;;5063047;28;20548;-69
2022/04/10 03:09:04;;;;;;;15.63;14.13;;;;;;;;;;5081215;28;20046;-69
2022/04/10 03:11:49;;;;;;;16.00;14.50;;;;;;;;;;5074534;28;20042;-68
2022/04/10 03:14:34;;;;;;;14.45;13.40;;;;;;;;;;5069267;28;20038;-68
2022/04/10 03:17:18;;;;;;;15.27;13.73;;;;;;;;;;5079728;28;20067;-69
2022/04/10 03:20:04;;;;;;;15.18;13.48;;;;;;;;;;5076896;28;20062;-69
2022/04/10 03:22:48;;;;;;;13.85;12.85;;;;;;;;;;5079914;28;20829;-69
2022/04/10 03:25:34;;;;;;;14.23;13.18;;;;;;;;;;5073982;28;20054;-68
2022/04/10 03:28:18;;;;;;;14.30;13.20;;;;;;;;;;5069096;28;20043;-69
2022/04/10 03:31:03;;;;;;;14.13;13.02;;;;;;;;;;5080011;28;20035;-69
2022/04/10 03:33:49;;;;;;;15.00;13.63;;;;;;;;;;5075214;28;20070;-68
2022/04/10 03:36:33;;;;;;;14.88;13.60;;;;;;;;;;5080613;28;20119;-68
2022/04/10 03:39:17;;;;;;;14.75;13.55;;;;;;;;;;5074522;28;20039;-69
2022/04/10 03:42:02;;;;;;;14.27;13.20;;;;;;;;;;5077201;28;20112;-69
2022/04/10 03:44:48;;;;;;;14.02;13.02;;;;;;;;;;5061461;28;20426;-69
2022/04/10 03:47:33;;;;;;;15.93;14.35;;;;;;;;;;5072186;28;20039;-68
2022/04/10 03:50:18;;;;;;;17.25;15.75;;;;;;;;;;5088112;28;20109;-69
2022/04/10 03:53:04;;;;;;;17.30;15.60;;;;;;;;;;5079950;28;20073;-68
2022/04/10 03:55:48;;;;;;;17.27;15.65;;;;;;;;;;5072777;28;20038;-68
2022/04/10 03:58:33;;;;;;;16.05;14.63;;;;;;;;;;5075875;28;20539;-68
2022/04/10 04:01:18;;;;;;;16.63;15.18;;;;;;;;;;5083532;28;20526;-71
2022/04/10 04:04:03;;;;;;;16.85;15.35;;;;;;;;;;5078506;28;20063;-68
2022/04/10 04:06:47;;;;;;;15.73;14.38;;;;;;;;;;5079976;28;20042;-68
2022/04/10 04:09:31;;;;;;;16.23;14.63;;;;;;;;;;5074101;28;20132;-69
2022/04/10 04:12:15;;;;;;;15.98;14.57;;;;;;;;;;5083207;28;20070;-69
2022/04/10 04:15:00;;;;;;;15.65;14.13;;;;;;;;;;5076629;28;20034;-69
2022/04/10 04:17:44;;;;;;;18.27;14.77;;;;;;;;;;5088198;28;20047;-69
2022/04/10 04:20:29;;;;;;;16.95;15.23;;;;;;;;;;5071128;28;20039;-68
2022/04/10 04:23:17;;;;;;;18.92;15.52;;;;;;;;;;5076064;28;20096;-68
2022/04/10 04:26:01;;;;;;;18.98;17.08;;;;;;;;;;5074722;28;20067;-69
2022/04/10 04:28:45;;;;;;;21.50;19.08;;;;;;;;;;5072786;28;20227;-69
2022/04/10 04:31:30;;;;;;;23.70;19.15;;;;;;;;;;5074744;28;20164;-69
2022/04/10 04:34:16;;;;;;;18.35;16.50;;;;;;;;;;5079273;28;20153;-69
2022/04/10 04:37:01;;;;;;;17.50;15.68;;;;;;;;;;5076682;28;20035;-69
2022/04/10 04:39:47;;;;;;;17.58;16.00;;;;;;;;;;5075147;28;20583;-69
2022/04/10 04:42:30;;;;;;;17.08;15.35;;;;;;;;;;5087973;28;20058;-69
2022/04/10 04:45:16;;;;;;;17.27;15.75;;;;;;;;;;5079210;28;20122;-68
2022/04/10 04:48:15;;;;;;;18.75;16.17;;;;;;;;;;5076081;28;20063;-69
2022/04/10 04:51:02;;;;;;;18.20;16.35;;;;;;;;;;5082534;28;20047;-69
2022/04/10 04:53:47;;;;;;;20.73;18.50;;;;;;;;;;5075926;28;20105;-69
2022/04/10 04:56:31;;;;;;;24.05;19.25;;;;;;;;;;5072562;28;20090;-68
2022/04/10 04:59:15;;;;;;;21.60;18.52;;;;;;;;;;5076885;28;20116;-69
2022/04/10 05:02:00;;;;;;;21.55;18.73;;;;;;;;;;5068132;28;20518;-69
2022/04/10 05:04:44;;;;;;;22.25;17.15;;;;;;;;;;5078105;28;20570;-69
2022/04/10 05:07:29;;;;;;;17.95;16.45;;;;;;;;;;5074337;28;20188;-69
2022/04/10 05:10:13;;;;;;;16.48;15.15;;;;;;;;;;5072139;28;20100;-69
2022/04/10 05:12:58;;;;;;;16.80;15.32;;;;;;;;;;5073609;28;20076;-69
2022/04/10 05:15:44;;;;;;;17.35;15.80;;;;;;;;;;5073023;28;20089;-69
2022/04/10 05:18:29;;;;;;;16.23;14.93;;;;;;;;;;5074742;28;20039;-69
2022/04/10 05:21:14;;;;;;;16.08;14.57;;;;;;;;;;5075852;28;20537;-69
2022/04/10 05:23:58;;;;;;;16.83;15.27;;;;;;;;;;5070801;28;20118;-69
2022/04/10 05:26:42;;;;;;;16.73;15.15;;;;;;;;;;5084061;28;20059;-68
2022/04/10 05:29:28;;;;;;;15.60;14.25;;;;;;;;;;5072293;28;20096;-68
2022/04/10 05:32:12;;;;;;;16.40;15.00;;;;;;;;;;5073883;28;20445;-69
2022/04/10 05:34:57;;;;;;;16.15;14.65;;;;;;;;;;5072714;28;20501;-68
2022/04/10 05:37:43;;;;;;;15.68;14.25;;;;;;;;;;5071716;28;20508;-69
2022/04/10 05:40:28;;;;;;;16.02;14.63;;;;;;;;;;5087074;28;20128;-69
2022/04/10 05:43:14;;;;;;;15.52;14.23;;;;;;;;;;5075081;28;20039;-69
2022/04/10 05:45:58;;;;;;;15.52;13.95;;;;;;;;;;5089812;28;20043;-69
2022/04/10 05:48:43;;;;;;;14.65;13.50;;;;;;;;;;5091190;28;20046;-68
2022/04/10 05:51:28;;;;;;;14.95;13.75;;;;;;;;;;5087849;28;20562;-68
2022/04/10 05:54:13;;;;;;;14.60;13.50;;;;;;;;;;5074099;28;20059;-71
2022/04/10 05:57:01;;;;;;;15.85;14.50;;;;;;;;;;5072568;28;20043;-69
2022/04/10 05:59:46;;;;;;;15.85;14.35;;;;;;;;;;5084610;28;20579;-69
2022/04/10 06:02:32;;;;;;;15.50;14.30;;;;;;;;;;5073821;28;20129;-69
2022/04/10 06:05:18;;;;;;;15.57;14.35;;;;;;;;;;5072217;28;20043;-68
2022/04/10 06:08:13;;;;;;;21.45;19.15;;;;;;;;;;5073108;28;20696;-69
2022/04/10 06:10:58;;;;;;;48.88;28.23;;;;;;;;;;5075845;28;20528;-68
2022/04/10 06:13:42;;;;;;;15.00;14.00;;;;;;;;;;5068231;28;20046;-69
2022/04/10 06:16:15;;;;;;;20.30;18.70;;;;;;;;;;5069831;28;20040;-69
2022/04/10 06:18:44;;;;;;;34.33;31.23;;;;;;;;;;5069299;28;20073;-69
2022/04/10 06:21:09;;;;;;;16.60;15.18;;;;;;;;;;5088194;28;20028;-69
2022/04/10 06:23:36;;;;;;;17.58;16.08;;;;;;;;;;5074095;28;20050;-69
2022/04/10 06:26:16;;;;;;;17.85;16.45;;;;;;;;;;5069478;28;20066;-69
2022/04/10 06:28:43;;;;;;;16.52;15.05;;;;;;;;;;5073330;28;20100;-69
2022/04/10 06:31:14;;;;;;;17.23;15.63;;;;;;;;;;5074609;28;20054;-69
2022/04/10 06:33:40;;;;;;;16.73;15.23;;;;;;;;;;5069735;28;20629;-69
2022/04/10 06:36:06;;;;;;;15.38;14.10;;;;;;;;;;5074494;28;20054;-69
2022/04/10 06:38:31;;;;;;;15.75;14.45;;;;;;;;;;5070477;28;20039;-69
2022/04/10 06:41:06;;;;;;;15.23;14.23;;;;;;;;;;5069996;28;20036;-69
2022/04/10 06:43:31;;;;;;;15.52;14.23;;;;;;;;;;5070474;28;20043;-69
2022/04/10 06:46:28;;;;;;;16.02;14.73;;;;;;;;;;5053265;28;20087;-70
2022/04/10 06:49:14;;;;;;;15.38;14.18;;;;;;;;;;5069305;28;20103;-69
2022/04/10 06:51:42;;;;;;;16.20;14.87;;;;;;;;;;5067442;28;20040;-70
2022/04/10 06:54:09;;;;;;;16.83;15.32;;;;;;;;;;5086198;28;20058;-71
2022/04/10 06:56:35;;;;;;;16.23;14.85;;;;;;;;;;5073003;28;20063;-70
2022/04/10 06:59:01;;;;;;;15.60;14.32;;;;;;;;;;5070280;28;20062;-69
2022/04/10 07:01:27;;;;;;;15.82;14.40;;;;;;;;;;5086040;28;20031;-71
2022/04/10 07:03:54;;;;;;;15.65;14.48;;;;;;;;;;5073281;28;20051;-71
2022/04/10 07:06:25;;;;;;;14.57;13.43;;;;;;;;;;5068509;28;20035;-70
2022/04/10 07:08:51;;;;;;;15.05;13.95;;;;;;;;;;5066841;28;20040;-71
2022/04/10 07:11:24;;;;;;;15.25;14.05;;;;;;;;;;5077859;28;20503;-70
2022/04/10 07:13:49;;;;;;;15.50;14.00;;;;;;;;;;5072356;28;20040;-71
2022/04/10 07:16:16;;;;;;;15.13;13.93;;;;;;;;;;5070769;28;20115;-71
2022/04/10 07:18:44;;;;;;;15.02;13.93;;;;;;;;;;5072851;28;20031;-70
2022/04/10 07:21:15;;;;;;;15.02;13.93;;;;;;;;;;5081857;28;20494;-70
2022/04/10 07:23:43;;;;;;;15.45;14.05;;;;;;;;;;5051132;28;20094;-71
2022/04/10 07:26:23;;;;;;;14.30;13.10;;;;;;;;;;5073555;22;20104;-70
2022/04/10 07:28:54;;;;;;;15.15;14.15;;;;;;;;;;5061583;28;20047;-70
2022/04/10 07:31:23;;;;;;;14.70;13.60;;;;;;;;;;5065118;28;20047;-69
2022/04/10 07:33:49;;;;;;;14.68;13.48;;;;;;;;;;5067532;28;20043;-70
2022/04/10 07:36:40;;;;;;;17.20;15.80;;;;;;;;;;5071480;28;20032;-70
2022/04/10 07:39:06;;;;;;;16.08;14.95;;;;;;;;;;5052463;28;20039;-69
2022/04/10 07:41:38;;;;;;;17.08;15.70;;;;;;;;;;5055216;28;20051;-70
2022/04/10 07:44:13;;;;;;;15.32;14.13;;;;;;;;;;5053737;28;20032;-69
2022/04/10 07:49:29;;;;;;;15.15;13.75;;;;;;;;;;5072692;28;20033;-69
2022/04/10 07:52:01;;;;;;;14.80;13.63;;;;;;;;;;5053142;28;20386;-71
2022/04/10 07:54:41;;;;;;;14.70;13.50;;;;;;;;;;5045138;28;20382;-69
2022/04/10 07:57:07;;;;;;;14.40;13.35;;;;;;;;;;5044599;28;20120;-70
2022/04/10 07:59:33;;;;;;;15.75;14.32;;;;;;;;;;5045240;28;20051;-70
2022/04/10 08:02:01;;;;;;;15.13;13.80;;;;;;;;;;5047185;28;20036;-71
2022/04/10 08:04:31;;;;;;;16.40;14.88;;;;;;;;;;5057017;28;20024;-71
2022/04/10 08:07:20;;;;;;;16.20;14.93;;;;;;;;;;5007117;28;20140;-69
2022/04/10 08:09:46;;;;;;;15.07;13.85;;;;;;;;;;5041085;28;20105;-69
2022/04/10 08:12:12;;;;;;;14.95;13.88;;;;;;;;;;5065827;28;20527;-69
2022/04/10 08:14:38;;;;;;;14.40;13.40;;;;;;;;;;5065724;28;20063;-70
2022/04/10 08:17:03;;;;;;;15.10;14.00;;;;;;;;;;5064390;28;20088;-70
2022/04/10 08:19:29;;;;;;;14.95;13.90;;;;;;;;;;5065065;28;20030;-69
2022/04/10 08:21:54;;;;;;;14.13;13.13;;;;;;;;;;5065424;28;20116;-69
2022/04/10 08:24:20;;;;;;;14.02;12.93;;;;;;;;;;5066820;28;20415;-71
2022/04/10 08:26:46;;;;;;;13.43;12.52;;;;;;;;;;5055007;28;20037;-70
2022/04/10 08:29:11;;;;;;;14.48;13.38;;;;;;;;;;5065464;28;20033;-70
2022/04/10 08:31:37;;;;;;;14.02;12.82;;;;;;;;;;5072973;28;20028;-70
2022/04/10 08:34:02;;;;;;;13.90;12.88;;;;;;;;;;5064155;28;20037;-70
2022/04/10 08:36:28;;;;;;;13.43;12.27;;;;;;;;;;5065365;28;20615;-70
2022/04/10 08:38:54;;;;;;;14.27;12.95;;;;;;;;;;5068200;28;20056;-70
2022/04/10 08:41:23;;;;;;;14.45;13.27;;;;;;;;;;5067991;28;20431;-71
2022/04/10 08:43:51;;;;;;;14.18;12.98;;;;;;;;;;5068388;28;20540;-71
2022/04/10 08:46:19;;;;;;;13.38;12.38;;;;;;;;;;5069042;28;20048;-71
2022/04/10 08:48:44;;;;;;;14.77;13.40;;;;;;;;;;5066883;28;20526;-71
2022/04/10 08:51:10;;;;;;;13.60;12.50;;;;;;;;;;5069851;28;20032;-70
2022/04/10 08:53:36;;;;;;;14.10;12.88;;;;;;;;;;5064666;28;20044;-70
2022/04/10 08:56:02;;;;;;;13.48;12.32;;;;;;;;;;5069670;28;20051;-71
2022/04/10 08:58:27;;;;;;;13.70;12.70;;;;;;;;;;5053850;28;20044;-71
2022/04/10 09:00:53;;;;;;;13.73;12.73;;;;;;;;;;5067911;28;20558;-70
2022/04/10 09:03:19;;;;;;;14.90;13.40;;;;;;;;;;5068166;28;20043;-70
2022/04/10 09:06:00;;;;;;;13.98;12.73;;;;;;;;;;5067656;28;20063;-71
2022/04/10 09:08:26;;;;;;;13.20;12.15;;;;;;;;;;5045863;28;20024;-70
2022/04/10 09:10:52;;;;;;;14.55;13.23;;;;;;;;;;5068177;28;20104;-72
2022/04/10 09:13:33;;;;;;;14.65;13.45;;;;;;;;;;5067287;28;20375;-71
2022/04/10 09:16:07;;;;;;;15.38;13.90;;;;;;;;;;5066494;28;20091;-71
2022/04/10 09:18:54;;;;;;;15.15;13.77;;;;;;;;;;5064095;28;20074;-70
2022/04/10 09:21:29;;;;;;;14.77;13.35;;;;;;;;;;5050151;28;20036;-70
2022/04/10 09:24:05;;;;;;;13.98;12.93;;;;;;;;;;5065337;28;20024;-70
2022/04/10 09:26:50;;;;;;;14.40;13.20;;;;;;;;;;5063792;28;20028;-70
2022/04/10 09:29:20;;;;;;;13.90;12.70;;;;;;;;;;5067790;28;20245;-70
2022/04/10 09:31:47;;;;;;;13.70;12.65;;;;;;;;;;5067946;28;20032;-70
2022/04/10 09:34:17;;;;;;;13.63;12.55;;;;;;;;;;5066052;28;20032;-70
2022/04/10 09:36:48;;;;;;;13.93;12.57;;;;;;;;;;5041068;28;20411;-72
2022/04/10 09:39:36;;;;;;;14.15;13.07;;;;;;;;;;5066901;28;20141;-71
2022/04/10 09:42:10;;;;;;;14.55;13.50;;;;;;;;;;5063967;28;20032;-70
2022/04/10 09:44:38;;;;;;;14.70;13.60;;;;;;;;;;5062248;28;20032;-71
2022/04/10 09:47:08;;;;;;;13.32;12.32;;;;;;;;;;5063655;28;20047;-71
2022/04/10 09:49:41;;;;;;;14.48;12.88;;;;;;;;;;5063807;28;20033;-71
2022/04/10 09:52:11;;;;;;;13.93;12.73;;;;;;;;;;5069772;22;20044;-77
2022/04/10 09:54:42;;;;;;;13.40;12.20;;;;;;;;;;5061708;28;20025;-76
2022/04/10 09:57:13;;;;;;;14.13;12.88;;;;;;;;;;5036042;28;20036;-77
2022/04/10 09:59:43;;;;;;;12.85;11.88;;;;;;;;;;5055143;28;20484;-76
2022/04/10 10:02:11;;;;;;;13.05;12.13;;;;;;;;;;5046705;28;20043;-76
2022/04/10 10:04:38;;;;;;;13.38;12.30;;;;;;;;;;5049131;28;20060;-77
2022/04/10 10:07:08;;;;;;;12.48;11.43;;;;;;;;;;5027910;28;20089;-77
2022/04/10 10:09:34;;;;;;;14.45;13.20;;;;;;;;;;5042948;28;20708;-77
2022/04/10 10:12:01;;;;;;;14.02;12.82;;;;;;;;;;5042206;28;20038;-77
2022/04/10 10:14:29;;;;;;;13.70;12.65;;;;;;;;;;5046315;28;20031;-77
2022/04/10 10:16:56;;;;;;;15.05;13.88;;;;;;;;;;5043502;28;20040;-76
2022/04/10 10:19:23;;;;;;;14.35;12.93;;;;;;;;;;5041406;28;20528;-76
2022/04/10 10:21:49;;;;;;;15.13;12.98;;;;;;;;;;5043518;28;20495;-77
2022/04/10 10:24:18;;;;;;;13.50;12.40;;;;;;;;;;5040514;28;20047;-75
2022/04/10 10:27:02;;;;;;;15.10;13.73;;;;;;;;;;5040346;28;20168;-77
2022/04/10 10:30:18;;;;;;;13.38;12.20;;;;;;;;;;5041557;28;20779;-77
2022/04/10 10:32:50;;;;;;;14.15;13.15;;;;;;;;;;5042108;28;20797;-77
2022/04/10 10:35:33;;;;;;;13.00;12.00;;;;;;;;;;5042707;28;20037;-77
2022/04/10 10:38:00;;;;;;;14.32;13.07;;;;;;;;;;5038009;28;20144;-77
2022/04/10 10:40:26;;;;;;;13.95;12.80;;;;;;;;;;5042973;28;20047;-76
2022/04/10 10:42:57;;;;;;;13.02;11.82;;;;;;;;;;5026762;28;20047;-77
2022/04/10 10:45:41;;;;;;;13.25;12.05;;;;;;;;;;5040714;28;20086;-77
2022/04/10 10:48:23;;;;;;;12.93;11.82;;;;;;;;;;5044794;28;20037;-76
2022/04/10 10:50:53;;;;;;;12.55;11.45;;;;;;;;;;5043755;28;20044;-77
2022/04/10 10:53:43;;;;;;;13.02;12.00;;;;;;;;;;5041640;28;20068;-77
2022/04/10 10:56:20;;;;;;;13.25;12.25;;;;;;;;;;5038341;28;20061;-76
2022/04/10 10:58:50;;;;;;;14.77;13.60;;;;;;;;;;5043488;28;20033;-76
2022/04/10 11:01:18;;;;;;;14.65;13.32;;;;;;;;;;5038899;28;20064;-76
2022/04/10 11:04:04;;;;;;;13.80;12.80;;;;;;;;;;5022992;28;20123;-76
2022/04/10 11:06:33;;;;;;;13.45;12.02;;;;;;;;;;5038885;28;20045;-77
2022/04/10 11:09:18;;;;;;;13.90;12.80;;;;;;;;;;5035190;28;20031;-77
2022/04/10 11:11:44;;;;;;;13.98;12.75;;;;;;;;;;5026569;28;20041;-77
2022/04/10 11:14:35;;;;;;;13.55;12.35;;;;;;;;;;5037445;28;20510;-76
2022/04/10 11:17:09;;;;;;;16.42;12.27;;;;;;;;;;5039375;28;20036;-77
2022/04/10 11:19:36;;;;;;;13.05;11.82;;;;;;;;;;5041580;28;20057;-78
2022/04/10 11:22:04;;;;;;;13.30;12.23;;;;;;;;;;5047831;28;20045;-76
2022/04/10 11:24:30;;;;;;;14.35;12.98;;;;;;;;;;5043900;28;20704;-75
2022/04/10 11:26:56;;;;;;;13.18;11.90;;;;;;;;;;5042672;28;20033;-76
2022/04/10 11:29:24;;;;;;;14.23;13.10;;;;;;;;;;5045781;28;20031;-77
2022/04/10 11:31:53;;;;;;;15.73;14.30;;;;;;;;;;5043462;28;20039;-76
2022/04/10 11:34:25;;;;;;;17.77;16.45;;;;;;;;;;5042501;28;20092;-77
2022/04/10 11:36:54;;;;;;;16.80;15.55;;;;;;;;;;5041847;28;20068;-78
2022/04/10 11:39:28;;;;;;;17.73;16.43;;;;;;;;;;5044842;28;20041;-76
2022/04/10 11:41:58;;;;;;;18.33;16.50;;;;;;;;;;5043550;28;20102;-77
2022/04/10 11:44:24;;;;;;;18.15;16.63;;;;;;;;;;5041117;28;20037;-77
2022/04/10 11:46:50;;;;;;;17.85;16.45;;;;;;;;;;5045411;28;20116;-76
2022/04/10 11:49:18;;;;;;;17.27;15.88;;;;;;;;;;5041729;28;20037;-76
2022/04/10 11:51:58;;;;;;;16.92;15.73;;;;;;;;;;5027644;28;20621;-76
2022/04/10 11:54:27;;;;;;;22.45;20.15;;;;;;;;;;5016277;28;20024;-76
2022/04/10 11:56:52;;;;;;;17.00;15.70;;;;;;;;;;5021178;28;20094;-76
2022/04/10 11:59:21;;;;;;;17.60;15.95;;;;;;;;;;5045161;28;20033;-76
2022/04/10 12:01:51;;;;;;;17.73;16.25;;;;;;;;;;5045678;28;20032;-75
2022/04/10 12:04:19;;;;;;;17.80;16.27;;;;;;;;;;5043138;28;20121;-76
2022/04/10 12:06:45;;;;;;;18.27;16.75;;;;;;;;;;5005424;28;20041;-75
2022/04/10 12:09:11;;;;;;;17.02;15.73;;;;;;;;;;5045911;28;20104;-75
2022/04/10 12:11:38;;;;;;;18.23;16.65;;;;;;;;;;5044185;28;20124;-76
2022/04/10 12:14:32;;;;;;;17.02;15.82;;;;;;;;;;5028719;28;20024;-75
2022/04/10 12:16:58;;;;;;;15.45;14.45;;;;;;;;;;5033480;28;20091;-77
2022/04/10 12:19:37;;;;;;;16.77;15.40;;;;;;;;;;5046412;28;20044;-77
2022/04/10 12:22:10;;;;;;;15.93;14.77;;;;;;;;;;5044890;28;20120;-76
2022/04/10 12:24:37;;;;;;;15.48;14.43;;;;;;;;;;5044527;28;20079;-76
2022/04/10 12:27:07;;;;;;;15.10;14.00;;;;;;;;;;5046096;28;20037;-76
2022/04/10 12:29:37;;;;;;;15.18;14.00;;;;;;;;;;5047939;28;20028;-77
2022/04/10 12:32:04;;;;;;;15.52;14.32;;;;;;;;;;5045017;28;20377;-76
2022/04/10 12:34:34;;;;;;;15.52;14.23;;;;;;;;;;5048744;28;20033;-76
2022/04/10 12:37:11;;;;;;;13.77;12.52;;;;;;;;;;5048692;28;20106;-76
2022/04/10 12:39:38;;;;;;;14.75;13.75;;;;;;;;;;5042620;28;20113;-77
2022/04/10 12:42:07;;;;;;;15.55;14.10;;;;;;;;;;5045411;28;20506;-77
2022/04/10 12:44:34;;;;;;;18.90;17.10;;;;;;;;;;5045129;28;20029;-76
2022/04/10 12:47:00;;;;;;;16.70;15.50;;;;;;;;;;5049413;28;20086;-75
2022/04/10 12:49:26;;;;;;;65.82;29.45;;;;;;;;;;5046032;28;20109;-76
2022/04/10 12:52:03;;;;;;;16.52;15.23;;;;;;;;;;5048454;28;20137;-76
2022/04/10 12:54:34;;;;;;;15.43;14.35;;;;;;;;;;5046156;28;20033;-76
2022/04/10 12:57:00;;;;;;;15.93;14.73;;;;;;;;;;5043995;28;20110;-77
2022/04/10 12:59:43;;;;;;;16.50;14.90;;;;;;;;;;5048223;28;20476;-76
2022/04/10 13:02:27;;;;;;;15.95;14.52;;;;;;;;;;5049535;28;20518;-75
2022/04/10 13:04:55;;;;;;;15.73;14.52;;;;;;;;;;5047302;28;20037;-77
2022/04/10 13:07:21;;;;;;;15.80;14.33;;;;;;;;;;5044031;28;20071;-76
2022/04/10 13:10:08;;;;;;;15.60;14.30;;;;;;;;;;5043629;28;20088;-76
2022/04/10 13:12:39;;;;;;;15.23;14.02;;;;;;;;;;5034535;28;20452;-76
2022/04/10 13:15:08;;;;;;;16.35;15.00;;;;;;;;;;5044071;28;20105;-76
2022/04/10 13:17:38;;;;;;;16.08;14.68;;;;;;;;;;5050601;28;20251;-78
2022/04/10 13:20:10;;;;;;;16.25;14.90;;;;;;;;;;5042942;28;20084;-77
2022/04/10 13:22:38;;;;;;;17.17;15.45;;;;;;;;;;5031752;28;20036;-76
2022/04/10 13:25:05;;;;;;;15.82;14.52;;;;;;;;;;5045604;28;20035;-76
2022/04/10 13:27:31;;;;;;;15.73;14.07;;;;;;;;;;5046420;28;20033;-77
2022/04/10 13:29:57;;;;;;;16.50;15.05;;;;;;;;;;5049073;28;20037;-76
2022/04/10 13:32:24;;;;;;;15.13;14.02;;;;;;;;;;5044277;28;20053;-77
2022/04/10 13:34:50;;;;;;;15.15;13.95;;;;;;;;;;5047210;28;20399;-76
2022/04/10 13:37:16;;;;;;;15.52;14.15;;;;;;;;;;5054918;28;20092;-76
2022/04/10 13:39:41;;;;;;;15.40;14.07;;;;;;;;;;5049086;28;20048;-76
2022/04/10 13:42:07;;;;;;;15.73;14.63;;;;;;;;;;5042678;28;20040;-78
2022/04/10 13:44:33;;;;;;;15.25;14.25;;;;;;;;;;5031706;28;20032;-78
2022/04/10 13:46:59;;;;;;;14.68;13.57;;;;;;;;;;5048194;28;20048;-77
2022/04/10 13:49:24;;;;;;;15.15;13.95;;;;;;;;;;5030084;28;20041;-77
2022/04/10 13:51:50;;;;;;;15.60;14.25;;;;;;;;;;5040907;28;20499;-76
2022/04/10 13:54:16;;;;;;;15.23;13.77;;;;;;;;;;5044218;28;20032;-76
2022/04/10 13:56:43;;;;;;;15.75;14.45;;;;;;;;;;5041865;28;20043;-76
2022/04/10 13:59:08;;;;;;;15.07;13.77;;;;;;;;;;5030250;28;20032;-75
2022/04/10 14:01:35;;;;;;;14.70;13.70;;;;;;;;;;5047801;28;20102;-77
2022/04/10 14:04:01;;;;;;;15.00;13.70;;;;;;;;;;5023130;28;20040;-78
2022/04/10 14:06:26;;;;;;;16.17;14.68;;;;;;;;;;5043992;28;20047;-76
2022/04/10 14:08:56;;;;;;;14.70;13.50;;;;;;;;;;5046919;28;20041;-78
2022/04/10 14:11:22;;;;;;;15.48;14.30;;;;;;;;;;5052848;28;20048;-77
2022/04/10 14:13:49;;;;;;;15.52;14.32;;;;;;;;;;5059655;28;20035;-77
2022/04/10 14:16:14;;;;;;;16.48;15.00;;;;;;;;;;5055729;28;20119;-76
2022/04/10 14:18:40;;;;;;;15.30;13.85;;;;;;;;;;5066753;28;20052;-76
2022/04/10 14:21:07;;;;;;;14.40;13.18;;;;;;;;;;5069999;28;20037;-76
2022/04/10 14:23:34;;;;;;;13.75;12.75;;;;;;;;;;5068777;28;20041;-75
2022/04/10 14:25:59;;;;;;;13.65;12.75;;;;;;;;;;5046717;28;20040;-77
2022/04/10 14:28:25;;;;;;;13.95;12.88;;;;;;;;;;5042279;28;20036;-79
2022/04/10 14:30:51;;;;;;;14.57;13.25;;;;;;;;;;5044140;28;20039;-79
2022/04/10 14:33:16;;;;;;;14.07;12.80;;;;;;;;;;5040203;28;20035;-77
2022/04/10 14:35:42;;;;;;;13.68;12.60;;;;;;;;;;5048831;28;20551;-78
2022/04/10 14:38:13;;;;;;;13.73;12.57;;;;;;;;;;5030921;28;20036;-78
2022/04/10 14:40:40;;;;;;;13.88;12.98;;;;;;;;;;5028773;28;20041;-78
2022/04/10 14:43:05;;;;;;;13.23;12.23;;;;;;;;;;5034645;28;20064;-79
2022/04/10 14:45:31;;;;;;;13.85;12.75;;;;;;;;;;5042923;28;20037;-79
2022/04/10 14:47:57;;;;;;;13.35;12.25;;;;;;;;;;5022244;28;20036;-79
2022/04/10 14:50:22;;;;;;;13.80;12.60;;;;;;;;;;5045077;28;20035;-78
2022/04/10 14:52:48;;;;;;;13.90;12.68;;;;;;;;;;5049916;28;20052;-77